Impacts METAR Board
IDs:

KSTL - St Louis/Lambert Int, MO, US

Updated at: 0100 UTC 18 Aug 2018
Potential Impact None Slight Moderate High
Time 17/13Z 17/14Z 17/15Z 17/16Z 17/17Z 17/18Z 17/19Z 17/20Z 17/21Z 17/22Z 17/23Z 18/00Z 18/01Z
Temp76 77 79 80 82 85 85 87 86 85 85 83 80
Dewpt71 69 70 70 70 70 71 71 69 68 69 68 68
Altim29.98 29.99 29.98 30.00 29.99 30.00 29.98 29.97 29.95 29.94 29.95 29.96 29.96
VIS10 10 10 10 10 10 10 10 10 10 10 10 10
CIG110 90 250 80 50 250 75 50 -- -- -- -- --
CoverBKNBKNBKNBKNBKNBKNBKNBKNSCTSCTSCTSCTSCT
FltCatVFRVFRVFRVFRVFRVFRVFRVFRVFRVFRVFRVFRVFR
WX--------------------------
WDir240250250260250240320300330360330340330
WSpd10 13 11 13 10 9 9 10 7 5 4 11 4
WGst-- -- 20 21 -- -- -- -- -- -- -- -- --
Raw hourly METARs
KSTL 171251Z 24010KT 10SM FEW060 BKN110 BKN250 24/22 A2998 RMK AO2 RAE01 SLP140 P0000 T02440217
KSTL 171351Z 25013KT 10SM SCT070 BKN090 BKN250 25/21 A2999 RMK AO2 SLP141 T02500206
KSTL 171451Z 25011G20KT 10SM FEW030 SCT080 BKN250 26/21 A2998 RMK AO2 SLP140 60000 T02610211 56007
KSTL 171551Z 26013G21KT 10SM FEW050 BKN080 BKN250 27/21 A3000 RMK AO2 SLP144 T02670211
KSTL 171651Z 25010KT 10SM FEW034 BKN050 28/21 A2999 RMK AO2 SLP142 T02780211
KSTL 171751Z 24009KT 10SM FEW034 SCT060 SCT080 BKN250 29/21 A3000 RMK AO2 SLP144 60000 T02940211 10294 20233 51005
KSTL 171851Z 32009KT 10SM SCT033 BKN075 BKN250 29/22 A2998 RMK AO2 SLP138 TCU DSNT NW-N T02940217
KSTL 171951Z 30010KT 10SM SCT036 BKN050 BKN090 BKN250 31/22 A2997 RMK AO2 SLP135 T03060217
KSTL 172051Z 33007KT 10SM FEW050 FEW100 SCT250 30/21 A2995 RMK AO2 SLP130 T03000206 56014
KSTL 172151Z 36005KT 10SM FEW050 FEW100 SCT250 29/20 A2994 RMK AO2 SLP124 T02940200
KSTL 172251Z 33004KT 10SM SCT055 SCT100 SCT250 29/21 A2995 RMK AO2 SLP129 T02940206
KSTL 172351Z 34011KT 10SM FEW055 SCT100 28/20 A2996 RMK AO2 SLP132 T02830200 10306 20278 53000
KSTL 180051Z 33004KT 10SM FEW050 FEW120 SCT250 27/20 A2996 RMK AO2 SLP135 CB DSNT SE MOV E T02670200



Page loaded:  01:28 UTC  |   06:28 PM Pacific  |   07:28 PM Mountain  |   08:28 PM Central  |   09:28 PM Eastern

 

ADVISORIES

FORECASTS

FORECASTS

OBSERVATIONS

USER TOOLS

ABOUT US